Overview Statistics Trail Chart Weather Telemetry Raw packets
 

This is the latest recevied weather packets stored in our database for station/object DB7GV-8. If no packets are shown the sender has not sent any weather packets the latest 10 day(s).

<< 18 19 20 21 22 23 24 >>
Time Temp. Humidity Pressure Rain* Wind** Luminosity Snow
1777295721 25.56° C 23% 1018.7 hPa - - - -
1777294815 26.11° C 23% 1018.7 hPa - - - -
1777293910 26.11° C 23% 1018.9 hPa - - - -
1777292099 26.67° C 23% 1019.2 hPa - - - -
1777291194 26.11° C 23% 1019.4 hPa - - - -
1777290288 26.11° C 22% 1019.5 hPa - - - -
1777289383 26.67° C 23% 1019.6 hPa - - - -
1777288478 26.11° C 22% 1019.8 hPa - - - -
1777287572 26.67° C 23% 1019.8 hPa - - - -
1777286667 26.67° C 24% 1020 hPa - - - -
1777284856 26.11° C 26% 1020.2 hPa - - - -
1777283048 25.56° C 26% 1020.5 hPa - - - -
1777282139 25.56° C 27% 1020.6 hPa - - - -
1777281235 25° C 28% 1020.8 hPa - - - -
1777280329 24.44° C 28% 1020.8 hPa - - - -
1777279423 23.89° C 28% 1020.9 hPa - - - -
1777278518 23.33° C 27% 1020.9 hPa - - - -
1777277612 27.78° C 21% 1021 hPa - - - -
1777276708 28.89° C 22% 1021.2 hPa - - - -
1777275801 31.67° C 19% 1021.3 hPa - - - -
1777274896 38.89° C 16% 1021.3 hPa - - - -
1777273991 29.44° C 23% 1021.4 hPa - - - -
1777273085 36.67° C 19% 1021.9 hPa - - - -
1777272180 31.67° C 31% 1022.1 hPa - - - -
1777271275 9.44° C 70% 1021.9 hPa - - - -

* Rain since midnight (hover to see other rain measurements)
** Current wind speed in m/s (hover to see current wind gust speed)